Time;durP1;ratioP1;P1;durP2;ratioP2;P2;SDS_P1;SDS_P2;PMS_P1;PMS_P2;Temp;Humidity;BMP_temperature;BMP_pressure;BME280_temperature;BME280_humidity;BME280_pressure;Samples;Min_cycle;Max_cycle;Signal;HPM_P1;HPM_P2
2024/01/18 00:02:01;;;;;;;7.80;7.10;;;8.30;95.20;;;7.32;100.00;95079.53;5042510;28;20947;-73
2024/01/18 00:04:29;;;;;;;7.63;6.43;;;8.30;95.00;;;7.42;100.00;95067.22;5050999;28;20860;-75
2024/01/18 00:06:57;;;;;;;8.53;6.93;;;8.40;95.50;;;7.30;100.00;95064.78;5050127;28;20536;-75
2024/01/18 00:09:24;;;;;;;8.47;7.53;;;8.30;95.10;;;7.34;100.00;95074.69;5047398;28;20454;-72
2024/01/18 00:11:51;;;;;;;8.60;7.70;;;8.30;95.30;;;7.18;100.00;95078.44;5057548;28;20465;-74
2024/01/18 00:14:19;;;;;;;8.27;7.43;;;8.20;95.30;;;7.36;100.00;95083.31;5055199;28;21073;-75
2024/01/18 00:16:47;;;;;;;10.30;8.13;;;8.30;96.10;;;7.29;100.00;95055.91;5058976;28;20457;-72
2024/01/18 00:19:15;;;;;;;9.27;7.53;;;8.30;95.70;;;7.36;100.00;95085.19;5056520;28;20450;-76
2024/01/18 00:21:43;;;;;;;8.10;7.30;;;8.30;95.20;;;7.41;100.00;95084.41;5075304;28;20809;-76
2024/01/18 00:24:11;;;;;;;8.40;7.60;;;8.30;95.30;;;7.31;100.00;95080.63;5076344;28;20450;-73
2024/01/18 00:26:39;;;;;;;10.67;9.20;;;8.30;95.20;;;7.32;100.00;95084.13;5054947;28;21060;-75
2024/01/18 00:29:08;;;;;;;9.10;7.60;;;8.30;95.60;;;7.26;100.00;95080.63;5056950;28;20450;-73
2024/01/18 00:31:35;;;;;;;7.93;7.13;;;8.30;95.20;;;7.40;100.00;95088.16;5071945;28;20512;-75
2024/01/18 00:34:06;;;;;;;9.20;8.30;;;8.30;95.30;;;7.29;100.00;95093.50;5045507;28;20513;-75
2024/01/18 00:36:33;;;;;;;8.23;7.30;;;8.30;95.10;;;7.36;100.00;95091.38;5070643;28;20449;-76
2024/01/18 00:39:03;;;;;;;8.00;7.27;;;8.30;95.20;;;7.36;100.00;95094.06;5084147;28;20620;-71
2024/01/18 00:41:32;;;;;;;8.37;7.50;;;8.30;95.10;;;7.21;100.00;95091.34;5050073;28;20469;-72
2024/01/18 00:44:00;;;;;;;8.87;7.97;;;8.20;94.90;;;7.28;100.00;95102.63;5048461;28;20452;-77
2024/01/18 00:46:27;;;;;;;7.37;6.60;;;8.20;95.10;;;7.45;100.00;95117.69;5053992;28;20457;-74
2024/01/18 00:48:54;;;;;;;7.30;6.60;;;8.30;95.50;;;7.39;100.00;95116.09;5070989;28;21075;-76
2024/01/18 00:51:23;;;;;;;7.63;6.80;;;8.30;95.10;;;7.32;100.00;95109.09;5056197;28;20449;-76
2024/01/18 00:53:50;;;;;;;8.00;7.20;;;8.30;95.10;;;7.43;100.00;95118.00;5043953;28;20485;-75
2024/01/18 00:56:18;;;;;;;7.23;6.27;;;8.40;95.40;;;7.53;100.00;95125.25;5049298;28;20453;-72
2024/01/18 00:58:45;;;;;;;7.43;6.40;;;8.40;95.60;;;7.48;100.00;95126.03;5056277;28;20450;-73
2024/01/18 01:01:13;;;;;;;6.70;6.10;;;8.40;95.60;;;7.49;100.00;95130.34;5048992;28;20468;-76
2024/01/18 01:03:40;;;;;;;9.37;7.43;;;8.40;96.10;;;7.48;100.00;95119.84;5045664;28;20456;-70
2024/01/18 01:06:11;;;;;;;8.70;7.17;;;8.40;96.20;;;7.45;100.00;95139.19;5044100;28;20474;-74
2024/01/18 01:08:41;;;;;;;7.73;7.00;;;8.40;96.10;;;7.47;100.00;95137.88;5051073;28;20448;-74
2024/01/18 01:11:08;;;;;;;8.30;6.60;;;8.40;96.10;;;7.42;100.00;95148.59;5047016;28;20461;-75
2024/01/18 01:13:36;;;;;;;8.93;6.33;;;8.40;96.40;;;7.29;100.00;95139.16;5061240;28;20749;-74
2024/01/18 01:16:04;;;;;;;7.37;6.57;;;8.30;96.50;;;7.41;100.00;95138.13;5058070;28;20481;-74
2024/01/18 01:18:31;;;;;;;8.63;6.70;;;8.30;97.50;;;7.47;100.00;95153.16;5042822;28;20459;-72
2024/01/18 01:20:59;;;;;;;7.13;6.30;;;8.40;97.40;;;7.47;100.00;95142.41;5063267;28;20445;-75
2024/01/18 01:23:26;;;;;;;7.23;6.40;;;8.40;97.20;;;7.62;100.00;95166.63;5051278;28;20465;-74
2024/01/18 01:25:55;;;;;;;7.30;5.33;;;8.50;97.10;;;7.46;100.00;95160.44;5042496;28;20465;-73
2024/01/18 01:28:22;;;;;;;5.80;5.20;;;8.40;96.50;;;7.73;100.00;95177.41;5051632;28;20450;-69
2024/01/18 01:30:49;;;;;;;6.50;5.90;;;8.50;97.30;;;7.65;100.00;95190.28;5046018;28;20450;-72
2024/01/18 01:33:17;;;;;;;6.27;5.63;;;8.60;96.50;;;7.45;100.00;95177.63;5052460;28;20455;-75
2024/01/18 01:35:44;;;;;;;5.90;5.40;;;8.50;96.30;;;7.57;100.00;95173.88;5048440;28;20568;-74
2024/01/18 01:38:12;;;;;;;7.10;5.33;;;8.50;96.80;;;7.63;100.00;95178.19;5059711;28;20442;-76
2024/01/18 01:40:39;;;;;;;5.60;5.10;;;8.50;96.60;;;7.65;100.00;95171.47;5036324;28;20951;-73
2024/01/18 01:43:09;;;;;;;5.77;5.27;;;8.50;96.30;;;7.52;100.00;95172.00;5040658;28;20446;-73
2024/01/18 01:45:36;;;;;;;6.33;5.00;;;8.50;96.70;;;7.65;100.00;95174.16;5044703;28;20516;-75
2024/01/18 01:48:08;;;;;;;6.43;5.83;;;8.50;97.10;;;7.57;100.00;95171.19;5047237;28;20461;-74
2024/01/18 01:50:36;;;;;;;5.47;4.97;;;8.40;96.90;;;7.62;100.00;95176.59;5058075;28;20454;-73
2024/01/18 01:53:04;;;;;;;6.40;5.60;;;8.50;97.50;;;7.51;100.00;95181.13;5037034;28;20938;-74
2024/01/18 01:55:32;;;;;;;5.60;5.10;;;8.40;97.80;;;7.51;100.00;95186.50;5053099;28;20477;-73
2024/01/18 01:58:00;;;;;;;5.57;5.07;;;8.40;98.00;;;7.52;100.00;95182.75;5039129;28;20442;-76
2024/01/18 02:00:29;;;;;;;6.30;5.70;;;8.30;97.80;;;7.47;100.00;95172.78;5051777;28;20466;-75
2024/01/18 02:02:56;;;;;;;6.53;5.80;;;8.30;98.60;;;7.40;100.00;95185.66;5070537;28;20518;-73
2024/01/18 02:05:26;;;;;;;7.10;6.30;;;8.20;98.80;;;7.42;100.00;95182.72;5048250;28;20458;-75
2024/01/18 02:07:53;;;;;;;7.00;6.07;;;8.20;99.60;;;7.36;100.00;95180.03;5058524;28;20481;-75
2024/01/18 02:10:22;;;;;;;6.43;5.60;;;8.10;99.90;;;7.02;100.00;95117.88;5039182;28;20541;-75
2024/01/18 02:12:51;;;;;;;8.17;7.37;;;8.10;99.90;;;7.33;100.00;95182.41;5049794;28;20458;-75
2024/01/18 02:15:19;;;;;;;7.30;6.30;;;8.20;99.90;;;7.35;100.00;95167.66;5043814;28;20530;-74
2024/01/18 02:17:48;;;;;;;7.13;6.43;;;8.10;99.90;;;7.31;100.00;95188.03;5039223;28;20866;-74
2024/01/18 02:20:16;;;;;;;9.67;6.60;;;8.10;99.90;;;7.10;100.00;95187.16;5045214;28;20446;-72
2024/01/18 02:22:44;;;;;;;7.33;6.60;;;8.00;99.90;;;7.00;100.00;95182.56;5064452;28;20954;-73
2024/01/18 02:25:20;;;;;;;8.73;7.77;;;7.90;99.90;;;7.12;100.00;95178.84;5040072;28;20446;-75
2024/01/18 02:27:50;;;;;;;7.97;6.77;;;7.90;99.90;;;7.15;100.00;95184.50;5044572;28;20456;-76
2024/01/18 02:30:20;;;;;;;7.70;6.90;;;8.00;99.90;;;7.05;100.00;95193.34;5055258;28;20457;-76
2024/01/18 02:32:48;;;;;;;8.10;7.30;;;7.90;99.90;;;7.05;100.00;95189.84;5050271;28;20449;-68
2024/01/18 02:35:15;;;;;;;7.93;7.13;;;7.90;99.90;;;7.11;100.00;95196.84;5063107;28;20480;-73
2024/01/18 02:37:46;;;;;;;9.17;7.70;;;8.00;99.90;;;6.89;100.00;95205.06;5052979;28;20818;-72
2024/01/18 02:40:13;;;;;;;10.80;8.73;;;7.90;99.90;;;6.73;100.00;95206.88;5043924;28;20464;-74
2024/01/18 02:42:43;;;;;;;10.47;9.37;;;7.70;99.90;;;6.59;100.00;95203.81;5043261;28;20973;-71
2024/01/18 02:45:10;;;;;;;11.00;8.97;;;7.60;99.90;;;6.38;100.00;95192.97;5058178;28;20459;-73
2024/01/18 02:47:37;;;;;;;11.80;10.70;;;7.40;99.90;;;6.22;100.00;95200.91;5041193;28;20458;-69
2024/01/18 02:50:06;;;;;;;13.23;11.77;;;7.30;99.90;;;6.20;100.00;95199.53;5062750;28;20457;-74
2024/01/18 02:52:33;;;;;;;12.90;11.50;;;7.20;99.90;;;6.14;100.00;95204.06;5070166;28;20454;-72
2024/01/18 02:55:01;;;;;;;13.47;11.13;;;7.10;99.90;;;5.85;100.00;95219.59;5050996;28;20563;-74
2024/01/18 02:57:28;;;;;;;14.60;12.40;;;6.90;99.90;;;5.63;100.00;95215.91;5052441;28;20837;-73
2024/01/18 03:00:01;;;;;;;14.10;11.87;;;6.80;99.90;;;5.73;100.00;95225.09;5044258;28;20465;-71
2024/01/18 03:02:29;;;;;;;15.20;13.00;;;6.70;99.90;;;5.41;100.00;95233.88;5061815;28;20830;-74
2024/01/18 03:04:56;;;;;;;15.57;12.00;;;6.50;99.90;;;5.34;100.00;95234.06;5065202;28;20449;-73
2024/01/18 03:07:23;;;;;;;14.70;11.33;;;6.50;99.90;;;5.27;100.00;95233.44;5061297;28;21046;-70
2024/01/18 03:09:51;;;;;;;13.90;11.27;;;6.30;99.90;;;4.90;100.00;95245.56;5044532;28;20462;-75
2024/01/18 03:12:18;;;;;;;7.40;6.70;;;6.10;99.90;;;4.64;100.00;95245.22;5042953;28;20461;-71
2024/01/18 03:14:45;;;;;;;7.90;7.00;;;5.80;99.90;;;4.38;100.00;95253.66;5063187;28;20456;-74
2024/01/18 03:17:14;;;;;;;7.83;6.90;;;5.50;99.90;;;4.22;100.00;95247.28;5050144;28;20456;-75
2024/01/18 03:19:41;;;;;;;7.30;6.60;;;5.30;99.90;;;4.08;100.00;95262.00;5056984;28;20864;-73
2024/01/18 03:22:09;;;;;;;6.90;6.20;;;5.20;99.90;;;3.92;100.00;95253.75;5042971;28;20455;-73
2024/01/18 03:24:36;;;;;;;7.97;7.17;;;5.10;99.90;;;3.90;100.00;95247.81;5047790;28;20842;-70
2024/01/18 03:27:03;;;;;;;8.00;7.20;;;5.00;99.90;;;3.72;100.00;95232.03;5041075;28;20460;-72
2024/01/18 03:29:31;;;;;;;7.80;7.10;;;4.90;99.90;;;3.69;100.00;95250.13;5039951;28;20464;-74
2024/01/18 03:31:58;;;;;;;8.70;7.80;;;4.90;99.90;;;3.83;100.00;95260.50;5055484;28;20456;-71
2024/01/18 03:34:27;;;;;;;7.27;6.57;;;4.90;99.90;;;3.71;100.00;95251.75;5045084;28;20454;-74
2024/01/18 03:36:54;;;;;;;8.83;7.90;;;4.80;99.90;;;3.55;100.00;95248.78;5057241;28;20480;-72
2024/01/18 03:39:22;;;;;;;10.30;9.17;;;4.70;99.90;;;3.56;100.00;95245.06;5050443;28;20540;-73
2024/01/18 03:41:49;;;;;;;10.00;8.93;;;4.70;99.90;;;3.67;100.00;95252.22;5042749;28;20458;-73
2024/01/18 03:44:18;;;;;;;8.50;7.63;;;4.70;99.90;;;3.64;100.00;95252.72;5052133;28;20473;-72
2024/01/18 03:46:45;;;;;;;9.80;8.53;;;4.80;99.90;;;3.57;100.00;95262.75;5044219;28;20479;-73
2024/01/18 03:49:13;;;;;;;9.40;8.40;;;4.60;99.90;;;3.60;100.00;95254.25;5044639;28;21472;-73
2024/01/18 03:51:42;;;;;;;9.47;8.50;;;4.70;99.90;;;3.77;100.00;95256.16;5054888;28;20450;-73
2024/01/18 03:54:10;;;;;;;11.77;9.33;;;4.70;99.90;;;3.65;100.00;95275.69;5057252;28;20460;-73
2024/01/18 03:56:37;;;;;;;10.57;8.97;;;4.70;99.90;;;3.50;100.00;95259.38;5049562;28;20473;-73
2024/01/18 03:59:05;;;;;;;8.70;7.80;;;4.60;99.90;;;3.59;100.00;95260.63;5048119;28;20457;-74
2024/01/18 04:01:32;;;;;;;8.33;7.40;;;4.70;99.90;;;3.53;100.00;95261.56;5050040;28;20981;-73
2024/01/18 04:04:00;;;;;;;9.77;8.03;;;4.60;99.90;;;3.53;100.00;95265.06;5048906;28;20490;-72
2024/01/18 04:06:30;;;;;;;11.63;8.50;;;4.60;99.90;;;3.51;100.00;95261.00;5049517;28;20456;-75
2024/01/18 04:08:59;;;;;;;9.13;7.40;;;4.60;99.90;;;3.75;100.00;95258.25;5049162;28;20448;-75
2024/01/18 04:11:27;;;;;;;12.07;7.90;;;4.70;99.90;;;3.58;100.00;95259.03;5048420;28;20452;-75
2024/01/18 04:13:54;;;;;;;10.00;7.73;;;4.60;99.90;;;3.78;100.00;95265.78;5059135;28;20833;-74
2024/01/18 04:16:22;;;;;;;10.67;8.23;;;4.70;99.90;;;3.77;100.00;95259.59;5055917;28;20468;-74
2024/01/18 04:18:49;;;;;;;9.83;7.90;;;4.70;99.90;;;3.66;100.00;95255.94;5066950;28;20464;-73
2024/01/18 04:21:17;;;;;;;11.87;9.07;;;4.70;99.90;;;3.48;100.00;95274.84;5050381;28;20462;-70
2024/01/18 04:23:44;;;;;;;9.57;8.03;;;4.60;99.90;;;2.57;100.00;95138.31;5066815;28;20568;-75
2024/01/18 04:26:13;;;;;;;11.03;8.47;;;4.60;99.90;;;3.46;100.00;95299.09;5052178;28;20807;-73
2024/01/18 04:28:43;;;;;;;11.93;9.57;;;4.60;99.90;;;3.29;100.00;95285.69;5055883;28;20462;-75
2024/01/18 04:31:10;;;;;;;10.47;8.60;;;4.50;99.90;;;3.47;100.00;95299.91;5041967;28;20452;-75
2024/01/18 04:33:37;;;;;;;11.57;9.40;;;4.50;99.90;;;3.43;100.00;95310.25;5046403;28;20491;-73
2024/01/18 04:36:06;;;;;;;15.63;10.40;;;4.60;99.90;;;3.42;100.00;95299.81;5073066;28;20987;-74
2024/01/18 04:38:33;;;;;;;10.50;8.43;;;4.50;99.90;;;3.48;100.00;95293.53;5034645;28;20467;-74
2024/01/18 04:41:01;;;;;;;12.43;9.50;;;4.50;99.90;;;3.62;100.00;95297.53;5063087;28;20862;-76
2024/01/18 04:43:32;;;;;;;12.60;9.67;;;4.60;99.90;;;3.46;100.00;95287.63;5049765;28;20446;-75
2024/01/18 04:46:00;;;;;;;10.37;8.87;;;4.50;99.90;;;3.29;100.00;95283.03;5053250;28;20464;-76
2024/01/18 04:48:29;;;;;;;11.77;8.80;;;4.40;99.90;;;3.40;100.00;95287.50;5045332;28;20869;-76
2024/01/18 04:50:57;;;;;;;12.57;10.17;;;4.50;99.90;;;3.27;100.00;95237.09;5070114;28;20791;-73
2024/01/18 04:53:25;;;;;;;11.57;9.07;;;4.50;99.90;;;3.52;100.00;95286.66;5077519;28;20502;-69
2024/01/18 04:55:53;;;;;;;12.10;8.93;;;4.60;99.90;;;3.34;100.00;95296.47;5043956;28;20483;-74
2024/01/18 04:58:21;;;;;;;12.07;8.83;;;4.50;99.90;;;3.44;100.00;95306.53;5052017;28;20469;-74
2024/01/18 05:00:50;;;;;;;11.93;9.37;;;4.50;99.90;;;3.39;100.00;95301.09;5071158;28;20453;-71
2024/01/18 05:03:17;;;;;;;12.67;10.27;;;4.50;99.90;;;3.59;100.00;95295.34;5061901;28;20448;-75
2024/01/18 05:05:47;;;;;;;13.50;9.20;;;4.50;99.90;;;3.69;100.00;95303.53;5048200;28;20452;-74
2024/01/18 05:08:14;;;;;;;10.53;8.97;;;4.60;99.90;;;3.49;100.00;95303.16;5055144;28;20435;-76
2024/01/18 05:10:41;;;;;;;10.50;8.67;;;4.60;99.90;;;3.34;100.00;95293.78;5050850;28;20450;-74
2024/01/18 05:13:09;;;;;;;12.10;9.03;;;4.50;99.90;;;3.18;100.00;95291.84;5046490;28;20453;-72
2024/01/18 05:15:39;;;;;;;10.27;8.83;;;4.40;99.90;;;3.17;100.00;95280.38;5053881;28;20477;-71
2024/01/18 05:18:10;;;;;;;11.60;9.20;;;4.30;99.90;;;3.34;100.00;95293.00;5050958;28;20489;-73
2024/01/18 05:20:38;;;;;;;11.80;9.73;;;4.40;99.90;;;3.29;100.00;95287.53;5056601;28;20537;-72
2024/01/18 05:23:06;;;;;;;11.27;9.07;;;4.30;99.90;;;3.39;100.00;95301.88;5036933;28;20916;-74
2024/01/18 05:25:33;;;;;;;12.00;9.67;;;4.40;99.90;;;3.40;100.00;95300.03;5060807;28;20501;-72
2024/01/18 05:28:01;;;;;;;13.50;10.40;;;4.40;99.90;;;3.33;100.00;95304.69;5067332;28;20447;-71
2024/01/18 05:30:28;;;;;;;12.40;10.07;;;4.30;99.90;;;3.44;100.00;95300.38;5051775;28;21163;-75
2024/01/18 05:32:56;;;;;;;13.50;9.90;;;4.40;99.90;;;3.52;100.00;95302.66;5044515;28;20449;-74
2024/01/18 05:35:25;;;;;;;10.90;9.30;;;4.50;99.90;;;3.43;100.00;95306.78;5067000;28;20496;-73
2024/01/18 05:37:53;;;;;;;15.30;11.53;;;4.40;99.90;;;3.58;100.00;95311.59;5054554;28;21069;-74
2024/01/18 05:40:22;;;;;;;16.30;11.73;;;4.50;99.90;;;3.65;100.00;95322.97;5039597;28;20980;-74
2024/01/18 05:42:49;;;;;;;13.27;10.90;;;4.60;99.90;;;3.45;100.00;95316.16;5043464;28;20456;-74
2024/01/18 05:45:17;;;;;;;10.50;9.13;;;4.50;99.90;;;3.55;100.00;95307.53;5033085;28;20604;-74
2024/01/18 05:47:44;;;;;;;12.60;9.80;;;4.50;99.90;;;3.51;100.00;95301.06;5063581;28;20982;-75
2024/01/18 05:50:13;;;;;;;13.57;9.57;;;4.50;99.90;;;3.52;100.00;95302.66;5038210;28;20512;-75
2024/01/18 05:52:42;;;;;;;10.47;9.37;;;4.50;99.90;;;3.52;100.00;95313.34;5037379;28;20445;-75
2024/01/18 05:55:10;;;;;;;11.03;9.10;;;4.50;99.90;;;3.52;100.00;95300.81;5049559;28;20835;-75
2024/01/18 05:57:38;;;;;;;11.23;10.13;;;4.50;99.90;;;3.52;100.00;95303.50;5042671;28;20582;-76
2024/01/18 06:00:08;;;;;;;13.67;10.43;;;4.50;99.90;;;3.59;100.00;95307.88;5049101;28;20446;-74
2024/01/18 06:02:36;;;;;;;11.07;9.63;;;4.60;99.90;;;3.52;100.00;95313.34;5067330;28;20459;-74
2024/01/18 06:05:03;;;;;;;13.57;9.93;;;4.50;99.90;;;3.16;100.00;95236.06;5045644;28;20450;-75
2024/01/18 06:07:31;;;;;;;10.93;9.67;;;4.60;99.90;;;3.86;100.00;95316.13;5037265;28;20452;-74
2024/01/18 06:10:00;;;;;;;12.70;9.67;;;4.70;99.90;;;3.83;100.00;95295.22;5059127;28;20450;-74
2024/01/18 06:12:32;;;;;;;10.43;8.83;;;4.80;99.90;;;3.74;100.00;95299.34;5061612;28;20476;-78
2024/01/18 06:14:59;;;;;;;13.03;9.57;;;4.70;99.90;;;3.69;100.00;95310.75;5069163;28;20452;-77
2024/01/18 06:17:27;;;;;;;10.53;9.40;;;4.70;99.90;;;3.63;100.00;95299.16;5031609;28;20846;-71
2024/01/18 06:19:54;;;;;;;12.20;9.23;;;4.60;99.90;;;3.72;100.00;95296.13;5044665;28;20456;-72
2024/01/18 06:22:22;;;;;;;14.03;9.80;;;4.70;99.90;;;3.67;100.00;95288.81;5047026;28;20609;-72
2024/01/18 06:24:59;;;;;;;13.10;10.70;;;4.70;99.90;;;3.68;100.00;95285.09;5061962;28;20456;-71
2024/01/18 06:27:27;;;;;;;12.67;11.20;;;4.70;99.90;;;3.59;100.00;95286.50;5044535;28;21063;-69
2024/01/18 06:29:55;;;;;;;14.30;10.40;;;4.70;99.90;;;3.71;100.00;95292.63;5031817;28;20462;-69
2024/01/18 06:32:22;;;;;;;11.67;9.50;;;4.70;99.90;;;3.81;100.00;95300.00;5049207;28;20651;-68
2024/01/18 06:34:50;;;;;;;14.30;11.57;;;4.70;99.90;;;3.76;100.00;95282.03;5047693;28;20456;-68
2024/01/18 06:37:20;;;;;;;12.50;9.97;;;4.80;99.90;;;3.66;100.00;95277.31;5036056;28;20489;-69
2024/01/18 06:39:47;;;;;;;13.07;10.63;;;4.70;99.90;;;3.74;100.00;95294.00;5044905;28;20459;-68
2024/01/18 06:42:18;;;;;;;14.27;9.83;;;4.70;99.90;;;3.56;100.00;95274.44;5054586;28;21011;-69
2024/01/18 06:44:47;;;;;;;12.90;8.70;;;4.60;99.90;;;3.85;100.00;95298.47;5039668;28;20468;-69
2024/01/18 06:47:17;;;;;;;12.80;9.90;;;4.70;99.90;;;3.78;100.00;95295.16;5036763;28;20579;-68
2024/01/18 06:49:45;;;;;;;13.33;9.53;;;4.70;99.90;;;3.62;100.00;95302.06;5043275;28;20939;-68
2024/01/18 06:52:13;;;;;;;11.03;8.90;;;4.60;99.90;;;3.71;100.00;95283.78;5049338;28;20555;-69
2024/01/18 06:54:44;;;;;;;11.03;9.10;;;4.60;99.90;;;3.61;100.00;95295.09;5046316;28;20468;-69
2024/01/18 06:57:13;;;;;;;11.43;9.20;;;4.60;99.90;;;3.57;100.00;95289.44;5043519;28;21275;-69
2024/01/18 06:59:46;;;;;;;13.50;10.10;;;4.50;99.90;;;3.62;100.00;95288.69;5034152;28;20461;-70
2024/01/18 07:02:14;;;;;;;12.30;10.30;;;4.50;99.90;;;3.59;100.00;95284.66;5049620;28;20479;-69
2024/01/18 07:04:42;;;;;;;12.40;9.80;;;4.60;99.90;;;3.57;100.00;95286.78;5046722;28;20450;-69
2024/01/18 07:07:10;;;;;;;11.80;10.07;;;4.50;99.90;;;3.57;100.00;95293.94;5041664;28;20520;-69
2024/01/18 07:09:37;;;;;;;13.40;10.53;;;4.50;99.90;;;3.64;100.00;95276.75;5035365;28;20449;-76
2024/01/18 07:12:10;;;;;;;13.70;9.50;;;4.60;99.90;;;3.65;100.00;95281.03;5034533;28;20480;-70
2024/01/18 07:14:39;;;;;;;12.60;10.50;;;4.60;99.90;;;3.63;100.00;95285.81;5051333;28;20483;-69
2024/01/18 07:17:08;;;;;;;13.90;10.57;;;4.60;99.90;;;3.53;100.00;95283.75;5043587;28;20835;-71
2024/01/18 07:19:35;;;;;;;13.40;10.43;;;4.50;99.90;;;3.41;100.00;95291.00;5061130;28;20464;-68
2024/01/18 07:22:08;;;;;;;10.93;9.53;;;4.40;99.90;;;3.38;100.00;95286.91;5041465;28;20453;-70
2024/01/18 07:24:36;;;;;;;15.83;12.50;;;4.40;99.90;;;3.18;100.00;95297.19;5034882;28;20468;-70
2024/01/18 07:27:09;;;;;;;16.27;11.20;;;4.30;99.90;;;2.80;100.00;95241.47;5042812;28;20461;-70
2024/01/18 07:29:37;;;;;;;16.63;11.87;;;4.30;99.90;;;3.12;100.00;95288.28;5044861;28;20457;-70
2024/01/18 07:32:08;;;;;;;17.13;12.37;;;4.20;99.90;;;3.02;100.00;95296.06;5053333;28;20552;-71
2024/01/18 07:34:36;;;;;;;15.30;11.17;;;4.10;99.90;;;3.03;100.00;95306.50;5056156;28;20487;-69
2024/01/18 07:37:05;;;;;;;30.20;19.37;;;4.00;99.90;;;3.03;100.00;95319.84;5033106;28;20483;-69
2024/01/18 07:39:32;;;;;;;31.00;18.47;;;4.10;99.90;;;2.90;100.00;95323.56;5060822;28;20487;-74
2024/01/18 07:42:00;;;;;;;35.87;17.83;;;4.10;99.90;;;2.59;100.00;95332.72;5044360;28;20448;-69
2024/01/18 07:44:27;;;;;;;24.60;14.73;;;3.80;99.90;;;2.32;100.00;95344.63;5042562;28;20460;-67
2024/01/18 07:46:55;;;;;;;16.53;9.97;;;3.60;99.90;;;2.08;100.00;95355.19;5038833;28;20449;-69
2024/01/18 07:49:25;;;;;;;14.10;9.87;;;3.40;99.90;;;2.14;100.00;95352.69;5041073;28;20450;-68
2024/01/18 07:51:53;;;;;;;14.80;8.73;;;3.30;99.90;;;2.12;100.00;95337.75;5042002;28;20457;-69
2024/01/18 07:54:22;;;;;;;9.07;5.33;;;3.30;99.90;;;1.86;100.00;95349.56;5032118;28;20456;-69
2024/01/18 07:56:49;;;;;;;7.77;5.43;;;3.20;99.90;;;1.75;100.00;95351.13;5030766;28;20485;-70
2024/01/18 07:59:17;;;;;;;7.83;5.70;;;3.00;99.90;;;1.79;100.00;95364.81;5032518;28;20462;-72
2024/01/18 08:01:45;;;;;;;12.43;9.57;;;3.00;99.90;;;1.81;100.00;95370.72;5041921;28;20461;-70
2024/01/18 08:04:15;;;;;;;8.43;6.43;;;3.00;99.90;;;1.68;100.00;95353.88;5058335;28;20443;-70
2024/01/18 08:06:44;;;;;;;9.00;6.60;;;3.00;99.90;;;1.55;100.00;95351.38;5022423;28;20485;-68
2024/01/18 08:09:12;;;;;;;8.63;6.27;;;2.90;99.90;;;1.60;100.00;95356.88;5028695;28;20799;-74
2024/01/18 08:11:40;;;;;;;8.33;6.80;;;2.80;99.90;;;1.67;100.00;95362.91;5047666;28;20452;-70
2024/01/18 08:14:07;;;;;;;8.80;6.10;;;2.80;99.90;;;1.60;100.00;95348.88;5047413;28;20455;-69
2024/01/18 08:16:35;;;;;;;8.73;6.50;;;2.80;99.90;;;1.59;100.00;95347.22;5049157;28;20498;-68
2024/01/18 08:19:02;;;;;;;8.03;6.50;;;2.80;99.90;;;1.59;100.00;95351.75;5033733;28;20467;-69
2024/01/18 08:21:29;;;;;;;8.10;6.30;;;2.80;99.90;;;1.54;100.00;95334.63;5051466;28;20550;-67
2024/01/18 08:24:00;;;;;;;8.17;5.70;;;2.80;99.90;;;1.68;100.00;95340.56;5056312;28;20457;-68
2024/01/18 08:26:29;;;;;;;8.43;6.07;;;2.80;99.90;;;1.70;100.00;95338.50;5029237;28;20478;-68
2024/01/18 08:28:57;;;;;;;8.13;6.30;;;2.80;99.90;;;1.54;100.00;95329.31;5033585;28;20952;-68
2024/01/18 08:31:24;;;;;;;9.73;7.50;;;2.80;99.90;;;1.55;100.00;95320.28;5034840;28;20452;-68
2024/01/18 08:33:51;;;;;;;7.03;6.30;;;2.80;99.90;;;1.20;100.00;95270.34;5038600;28;21093;-68
2024/01/18 08:36:19;;;;;;;12.53;7.93;;;2.80;99.90;;;1.73;100.00;95344.41;5039026;28;20459;-67
2024/01/18 08:38:46;;;;;;;11.30;7.80;;;2.80;99.90;;;1.75;100.00;95340.50;5055212;28;20467;-68
2024/01/18 08:41:16;;;;;;;11.33;7.70;;;2.90;99.90;;;1.69;100.00;95342.19;5042036;28;20523;-68
2024/01/18 08:43:46;;;;;;;9.40;6.93;;;2.90;99.90;;;1.70;100.00;95362.47;5054617;28;20470;-69
2024/01/18 08:46:16;;;;;;;8.93;7.07;;;2.90;99.90;;;1.68;100.00;95345.91;5041550;28;20458;-69
2024/01/18 08:48:44;;;;;;;11.20;8.70;;;2.90;99.90;;;1.29;100.00;95270.88;5036388;28;20459;-68
2024/01/18 08:51:14;;;;;;;12.20;9.03;;;2.90;99.90;;;1.85;100.00;95342.59;5049179;28;20493;-68
2024/01/18 08:53:48;;;;;;;9.43;7.80;;;3.00;99.90;;;1.77;100.00;95349.06;5036854;28;20446;-68
2024/01/18 08:56:17;;;;;;;8.93;7.60;;;2.90;99.90;;;1.92;100.00;95346.00;5045158;28;20460;-67
2024/01/18 08:58:45;;;;;;;8.17;6.87;;;3.00;99.90;;;1.94;100.00;95349.25;5043708;28;20487;-70
2024/01/18 09:01:14;;;;;;;11.40;6.47;;;3.00;99.90;;;1.97;100.00;95343.47;5039601;28;20450;-67
2024/01/18 09:03:43;;;;;;;10.10;8.37;;;3.10;99.90;;;1.96;100.00;95352.50;5041635;28;20497;-67
2024/01/18 09:06:11;;;;;;;8.40;6.53;;;3.10;99.90;;;2.09;100.00;95359.47;5037375;28;20452;-69
2024/01/18 09:08:39;;;;;;;9.27;6.53;;;3.20;99.90;;;2.14;100.00;95364.13;5034199;28;20554;-68
2024/01/18 09:11:08;;;;;;;8.43;5.70;;;3.20;99.90;;;1.96;100.00;95367.66;5034943;28;20471;-68
2024/01/18 09:13:36;;;;;;;8.00;6.43;;;3.10;99.90;;;1.83;100.00;95363.31;5034851;28;20841;-69
2024/01/18 09:16:04;;;;;;;11.00;5.77;;;3.00;99.90;;;1.80;100.00;95366.44;5031809;28;20460;-69
2024/01/18 09:18:32;;;;;;;6.73;5.33;;;3.00;99.90;;;1.80;100.00;95366.44;5043007;28;20488;-70
2024/01/18 09:21:02;;;;;;;8.73;6.10;;;2.90;99.90;;;1.79;100.00;95370.16;5035416;28;20549;-71
2024/01/18 09:23:31;;;;;;;8.30;5.63;;;3.00;99.90;;;2.01;100.00;95365.16;5048609;28;20461;-69
2024/01/18 09:26:00;;;;;;;7.47;6.63;;;3.10;99.90;;;2.06;100.00;95393.78;5051492;28;20490;-69
2024/01/18 09:28:29;;;;;;;10.00;8.57;;;3.20;99.90;;;1.94;100.00;95381.22;5041421;28;20470;-70
2024/01/18 09:31:06;;;;;;;7.47;6.03;;;3.10;99.90;;;1.79;100.00;95388.78;5055934;28;20464;-70
2024/01/18 09:33:33;;;;;;;8.57;6.80;;;3.00;99.90;;;1.85;100.00;95398.53;5052132;28;20461;-69
2024/01/18 09:36:03;;;;;;;8.73;6.20;;;3.00;99.90;;;1.82;100.00;95383.00;5056725;28;20489;-71
2024/01/18 09:38:31;;;;;;;10.23;6.13;;;3.00;99.90;;;1.89;100.00;95386.38;5043301;28;20475;-69
2024/01/18 09:41:04;;;;;;;6.47;5.50;;;3.00;99.90;;;1.93;100.00;95379.59;5050810;28;20463;-69
2024/01/18 09:43:36;;;;;;;6.53;5.83;;;3.00;99.90;;;2.02;100.00;95392.56;5039958;28;20999;-69
2024/01/18 09:46:09;;;;;;;7.30;6.17;;;3.00;99.90;;;1.94;100.00;95389.19;5041282;28;20903;-69
2024/01/18 09:48:37;;;;;;;6.63;5.77;;;3.10;99.90;;;1.95;100.00;95393.50;5036950;28;20454;-70
2024/01/18 09:51:08;;;;;;;14.17;8.33;;;3.10;99.90;;;2.07;100.00;95393.53;5036176;28;20462;-70
2024/01/18 09:53:36;;;;;;;13.33;8.17;;;3.10;99.90;;;2.09;100.00;95403.97;5036570;28;20553;-70
2024/01/18 09:56:11;;;;;;;8.13;6.60;;;3.20;99.90;;;2.12;100.00;95408.84;5051367;28;20476;-70
2024/01/18 09:58:39;;;;;;;6.80;5.67;;;3.30;99.90;;;1.92;100.00;95407.25;5051576;28;20507;-69
2024/01/18 10:01:16;;;;;;;7.60;6.73;;;3.10;99.90;;;1.97;100.00;95407.38;5044473;28;20995;-68
2024/01/18 10:03:45;;;;;;;6.57;5.90;;;3.10;99.90;;;1.92;100.00;95403.78;5042137;28;20459;-70
2024/01/18 10:06:15;;;;;;;11.17;8.17;;;3.10;99.90;;;2.11;100.00;95402.69;5034352;28;20695;-70
2024/01/18 10:08:43;;;;;;;7.53;6.00;;;3.20;99.90;;;2.15;100.00;95403.06;5055206;28;20974;-70
2024/01/18 10:11:11;;;;;;;8.20;6.60;;;3.30;99.90;;;2.20;100.00;95405.88;5055263;28;20516;-69
2024/01/18 10:13:54;;;;;;;7.97;6.50;;;3.30;99.90;;;2.07;100.00;95401.53;5049927;28;20443;-69
2024/01/18 10:16:29;;;;;;;8.50;6.40;;;3.30;99.20;;;1.88;100.00;95407.94;5039797;28;20464;-70
2024/01/18 10:19:00;;;;;;;9.40;6.30;;;3.10;98.10;;;1.86;100.00;95415.34;5062011;28;20487;-70
2024/01/18 10:21:28;;;;;;;7.33;6.53;;;3.10;99.00;;;1.87;100.00;95417.75;5050260;28;20461;-69
2024/01/18 10:23:58;;;;;;;9.63;7.60;;;3.00;99.90;;;2.02;100.00;95424.53;5048250;28;20806;-70
2024/01/18 10:26:31;;;;;;;10.90;7.80;;;3.10;99.90;;;1.88;100.00;95423.91;5044864;28;20468;-70
2024/01/18 10:28:59;;;;;;;10.40;7.20;;;3.00;99.90;;;1.98;100.00;95419.66;5049579;28;20470;-69